sensor_id;sensor_type;location;lat;lon;timestamp;P1;durP1;ratioP1;P2;durP2;ratioP2
2001;SDS011;1003;48.002;7.788;2023-02-22T00:01:30;2.50;;;1.80;;
2001;SDS011;1003;48.002;7.788;2023-02-22T00:04:00;1.80;;;1.63;;
2001;SDS011;1003;48.002;7.788;2023-02-22T00:06:28;2.93;;;1.70;;
2001;SDS011;1003;48.002;7.788;2023-02-22T00:08:57;2.00;;;1.80;;
2001;SDS011;1003;48.002;7.788;2023-02-22T00:11:26;2.23;;;1.60;;
2001;SDS011;1003;48.002;7.788;2023-02-22T00:13:55;5.07;;;3.10;;
2001;SDS011;1003;48.002;7.788;2023-02-22T00:16:22;6.17;;;3.40;;
2001;SDS011;1003;48.002;7.788;2023-02-22T00:18:51;7.37;;;3.23;;
2001;SDS011;1003;48.002;7.788;2023-02-22T00:21:19;6.83;;;3.83;;
2001;SDS011;1003;48.002;7.788;2023-02-22T00:23:47;6.10;;;3.50;;
2001;SDS011;1003;48.002;7.788;2023-02-22T00:26:17;6.63;;;3.17;;
2001;SDS011;1003;48.002;7.788;2023-02-22T00:28:48;5.37;;;3.13;;
2001;SDS011;1003;48.002;7.788;2023-02-22T00:31:17;5.60;;;3.87;;
2001;SDS011;1003;48.002;7.788;2023-02-22T00:33:45;7.30;;;4.47;;
2001;SDS011;1003;48.002;7.788;2023-02-22T00:36:12;6.47;;;4.33;;
2001;SDS011;1003;48.002;7.788;2023-02-22T00:38:40;7.63;;;4.57;;
2001;SDS011;1003;48.002;7.788;2023-02-22T00:41:07;7.33;;;4.77;;
2001;SDS011;1003;48.002;7.788;2023-02-22T00:43:36;8.73;;;5.23;;
2001;SDS011;1003;48.002;7.788;2023-02-22T00:46:03;10.23;;;5.67;;
2001;SDS011;1003;48.002;7.788;2023-02-22T00:48:30;10.13;;;5.40;;
2001;SDS011;1003;48.002;7.788;2023-02-22T00:50:57;9.13;;;5.50;;
2001;SDS011;1003;48.002;7.788;2023-02-22T00:53:24;10.87;;;5.67;;
2001;SDS011;1003;48.002;7.788;2023-02-22T00:55:52;6.90;;;5.00;;
2001;SDS011;1003;48.002;7.788;2023-02-22T00:58:19;8.47;;;5.07;;
2001;SDS011;1003;48.002;7.788;2023-02-22T01:00:49;8.27;;;4.90;;
2001;SDS011;1003;48.002;7.788;2023-02-22T01:03:18;7.67;;;4.77;;
2001;SDS011;1003;48.002;7.788;2023-02-22T01:05:45;6.93;;;4.77;;
2001;SDS011;1003;48.002;7.788;2023-02-22T01:08:14;8.17;;;5.07;;
2001;SDS011;1003;48.002;7.788;2023-02-22T01:10:42;8.93;;;5.00;;
2001;SDS011;1003;48.002;7.788;2023-02-22T01:13:11;8.00;;;4.80;;
2001;SDS011;1003;48.002;7.788;2023-02-22T01:15:39;7.67;;;4.60;;
2001;SDS011;1003;48.002;7.788;2023-02-22T01:18:11;8.07;;;4.50;;
2001;SDS011;1003;48.002;7.788;2023-02-22T01:20:41;8.30;;;4.70;;
2001;SDS011;1003;48.002;7.788;2023-02-22T01:23:12;6.67;;;4.13;;
2001;SDS011;1003;48.002;7.788;2023-02-22T01:25:41;7.33;;;4.07;;
2001;SDS011;1003;48.002;7.788;2023-02-22T01:28:08;6.43;;;3.80;;
2001;SDS011;1003;48.002;7.788;2023-02-22T01:30:37;4.97;;;3.63;;
2001;SDS011;1003;48.002;7.788;2023-02-22T01:33:05;5.40;;;3.90;;
2001;SDS011;1003;48.002;7.788;2023-02-22T01:35:34;4.73;;;3.10;;
2001;SDS011;1003;48.002;7.788;2023-02-22T01:38:05;5.03;;;3.33;;
2001;SDS011;1003;48.002;7.788;2023-02-22T01:40:33;5.17;;;3.17;;
2001;SDS011;1003;48.002;7.788;2023-02-22T01:43:03;5.00;;;3.40;;
2001;SDS011;1003;48.002;7.788;2023-02-22T01:45:42;3.87;;;2.87;;
2001;SDS011;1003;48.002;7.788;2023-02-22T01:48:23;4.90;;;3.13;;
2001;SDS011;1003;48.002;7.788;2023-02-22T01:51:01;3.83;;;2.53;;
2001;SDS011;1003;48.002;7.788;2023-02-22T01:53:37;4.83;;;2.80;;
2001;SDS011;1003;48.002;7.788;2023-02-22T01:56:12;3.77;;;2.50;;
2001;SDS011;1003;48.002;7.788;2023-02-22T01:58:42;4.33;;;2.63;;
2001;SDS011;1003;48.002;7.788;2023-02-22T02:01:14;3.30;;;2.30;;
2001;SDS011;1003;48.002;7.788;2023-02-22T02:03:44;2.93;;;2.40;;
2001;SDS011;1003;48.002;7.788;2023-02-22T02:06:14;3.00;;;2.53;;
2001;SDS011;1003;48.002;7.788;2023-02-22T02:08:46;3.87;;;2.63;;
2001;SDS011;1003;48.002;7.788;2023-02-22T02:11:23;4.37;;;2.60;;
2001;SDS011;1003;48.002;7.788;2023-02-22T02:13:52;4.27;;;2.60;;
2001;SDS011;1003;48.002;7.788;2023-02-22T02:16:23;3.13;;;2.13;;
2001;SDS011;1003;48.002;7.788;2023-02-22T02:18:58;4.27;;;3.03;;
2001;SDS011;1003;48.002;7.788;2023-02-22T02:21:40;4.13;;;2.80;;
2001;SDS011;1003;48.002;7.788;2023-02-22T02:31:38;5.43;;;3.30;;
2001;SDS011;1003;48.002;7.788;2023-02-22T02:34:53;6.10;;;3.23;;
2001;SDS011;1003;48.002;7.788;2023-02-22T02:37:31;4.10;;;2.90;;
2001;SDS011;1003;48.002;7.788;2023-02-22T02:40:10;6.80;;;3.03;;
2001;SDS011;1003;48.002;7.788;2023-02-22T02:42:49;4.93;;;2.97;;
2001;SDS011;1003;48.002;7.788;2023-02-22T02:45:26;4.17;;;2.97;;
2001;SDS011;1003;48.002;7.788;2023-02-22T02:48:02;4.73;;;3.13;;
2001;SDS011;1003;48.002;7.788;2023-02-22T02:50:35;3.47;;;2.77;;
2001;SDS011;1003;48.002;7.788;2023-02-22T02:53:08;4.77;;;2.90;;
2001;SDS011;1003;48.002;7.788;2023-02-22T02:55:38;3.87;;;2.80;;
2001;SDS011;1003;48.002;7.788;2023-02-22T02:58:06;7.50;;;3.60;;
2001;SDS011;1003;48.002;7.788;2023-02-22T03:00:34;5.77;;;3.80;;
2001;SDS011;1003;48.002;7.788;2023-02-22T03:06:16;5.90;;;3.20;;
2001;SDS011;1003;48.002;7.788;2023-02-22T03:09:06;6.83;;;3.40;;
2001;SDS011;1003;48.002;7.788;2023-02-22T03:11:45;5.07;;;2.50;;
2001;SDS011;1003;48.002;7.788;2023-02-22T03:14:28;5.13;;;2.77;;
2001;SDS011;1003;48.002;7.788;2023-02-22T03:17:07;4.40;;;2.63;;
2001;SDS011;1003;48.002;7.788;2023-02-22T03:19:50;2.93;;;2.13;;
2001;SDS011;1003;48.002;7.788;2023-02-22T03:22:26;3.53;;;2.50;;
2001;SDS011;1003;48.002;7.788;2023-02-22T03:25:03;4.10;;;2.27;;
2001;SDS011;1003;48.002;7.788;2023-02-22T03:27:36;3.97;;;2.23;;
2001;SDS011;1003;48.002;7.788;2023-02-22T03:30:12;3.03;;;1.87;;
2001;SDS011;1003;48.002;7.788;2023-02-22T03:32:48;3.67;;;2.17;;
2001;SDS011;1003;48.002;7.788;2023-02-22T03:35:27;2.77;;;1.80;;
2001;SDS011;1003;48.002;7.788;2023-02-22T03:38:02;4.73;;;2.37;;
2001;SDS011;1003;48.002;7.788;2023-02-22T03:40:35;3.60;;;2.67;;
2001;SDS011;1003;48.002;7.788;2023-02-22T03:43:11;3.90;;;2.73;;
2001;SDS011;1003;48.002;7.788;2023-02-22T03:45:44;5.87;;;3.70;;
2001;SDS011;1003;48.002;7.788;2023-02-22T03:48:16;6.37;;;3.83;;
2001;SDS011;1003;48.002;7.788;2023-02-22T03:50:53;6.03;;;3.87;;
2001;SDS011;1003;48.002;7.788;2023-02-22T03:53:22;6.60;;;3.90;;
2001;SDS011;1003;48.002;7.788;2023-02-22T03:55:50;6.40;;;3.73;;
2001;SDS011;1003;48.002;7.788;2023-02-22T03:58:22;4.97;;;3.60;;
2001;SDS011;1003;48.002;7.788;2023-02-22T04:00:55;4.27;;;2.70;;
2001;SDS011;1003;48.002;7.788;2023-02-22T04:03:22;3.57;;;2.27;;
2001;SDS011;1003;48.002;7.788;2023-02-22T04:05:49;2.53;;;1.90;;
2001;SDS011;1003;48.002;7.788;2023-02-22T04:08:18;2.43;;;1.90;;
2001;SDS011;1003;48.002;7.788;2023-02-22T04:10:45;2.93;;;2.40;;
2001;SDS011;1003;48.002;7.788;2023-02-22T04:13:12;4.93;;;2.80;;
2001;SDS011;1003;48.002;7.788;2023-02-22T04:15:39;4.37;;;2.57;;
2001;SDS011;1003;48.002;7.788;2023-02-22T04:18:06;3.67;;;2.67;;
2001;SDS011;1003;48.002;7.788;2023-02-22T04:20:33;3.80;;;2.97;;
2001;SDS011;1003;48.002;7.788;2023-02-22T04:23:00;5.83;;;3.00;;
2001;SDS011;1003;48.002;7.788;2023-02-22T04:25:29;4.07;;;2.70;;
2001;SDS011;1003;48.002;7.788;2023-02-22T04:27:56;2.47;;;2.10;;
2001;SDS011;1003;48.002;7.788;2023-02-22T04:30:23;3.60;;;2.30;;
2001;SDS011;1003;48.002;7.788;2023-02-22T04:32:50;2.63;;;1.70;;
2001;SDS011;1003;48.002;7.788;2023-02-22T04:35:17;2.53;;;2.00;;
2001;SDS011;1003;48.002;7.788;2023-02-22T04:37:44;2.73;;;1.97;;
2001;SDS011;1003;48.002;7.788;2023-02-22T04:40:11;2.20;;;2.00;;
2001;SDS011;1003;48.002;7.788;2023-02-22T04:42:39;3.23;;;1.93;;
2001;SDS011;1003;48.002;7.788;2023-02-22T04:45:07;5.13;;;3.43;;
2001;SDS011;1003;48.002;7.788;2023-02-22T04:47:36;6.70;;;4.27;;
2001;SDS011;1003;48.002;7.788;2023-02-22T04:50:03;7.67;;;4.73;;
2001;SDS011;1003;48.002;7.788;2023-02-22T04:52:32;7.30;;;4.83;;
2001;SDS011;1003;48.002;7.788;2023-02-22T04:54:59;8.10;;;5.13;;
2001;SDS011;1003;48.002;7.788;2023-02-22T04:57:26;7.93;;;5.20;;
2001;SDS011;1003;48.002;7.788;2023-02-22T04:59:54;8.03;;;5.10;;
2001;SDS011;1003;48.002;7.788;2023-02-22T05:02:22;8.53;;;5.30;;
2001;SDS011;1003;48.002;7.788;2023-02-22T05:04:49;8.67;;;5.07;;
2001;SDS011;1003;48.002;7.788;2023-02-22T05:07:16;8.23;;;4.80;;
2001;SDS011;1003;48.002;7.788;2023-02-22T05:09:43;7.80;;;5.00;;
2001;SDS011;1003;48.002;7.788;2023-02-22T05:12:10;4.30;;;2.80;;
2001;SDS011;1003;48.002;7.788;2023-02-22T05:14:37;6.03;;;4.13;;
2001;SDS011;1003;48.002;7.788;2023-02-22T05:17:06;3.53;;;2.67;;
2001;SDS011;1003;48.002;7.788;2023-02-22T05:19:33;4.33;;;2.90;;
2001;SDS011;1003;48.002;7.788;2023-02-22T05:22:01;3.73;;;2.63;;
2001;SDS011;1003;48.002;7.788;2023-02-22T05:24:30;7.67;;;4.60;;
2001;SDS011;1003;48.002;7.788;2023-02-22T05:26:57;6.60;;;4.50;;
2001;SDS011;1003;48.002;7.788;2023-02-22T05:29:24;7.33;;;4.07;;
2001;SDS011;1003;48.002;7.788;2023-02-22T05:31:51;4.93;;;3.80;;
2001;SDS011;1003;48.002;7.788;2023-02-22T05:34:20;5.43;;;3.80;;
2001;SDS011;1003;48.002;7.788;2023-02-22T05:36:48;6.40;;;3.83;;
2001;SDS011;1003;48.002;7.788;2023-02-22T05:39:15;6.10;;;4.00;;
2001;SDS011;1003;48.002;7.788;2023-02-22T05:41:42;5.23;;;3.63;;
2001;SDS011;1003;48.002;7.788;2023-02-22T05:44:09;5.63;;;3.70;;
2001;SDS011;1003;48.002;7.788;2023-02-22T05:46:36;6.50;;;3.77;;
2001;SDS011;1003;48.002;7.788;2023-02-22T05:49:03;6.47;;;3.67;;
2001;SDS011;1003;48.002;7.788;2023-02-22T05:51:31;5.07;;;3.60;;
2001;SDS011;1003;48.002;7.788;2023-02-22T05:53:58;5.23;;;3.40;;
2001;SDS011;1003;48.002;7.788;2023-02-22T05:56:27;6.30;;;3.47;;
2001;SDS011;1003;48.002;7.788;2023-02-22T05:58:55;6.00;;;4.03;;
2001;SDS011;1003;48.002;7.788;2023-02-22T06:01:22;7.77;;;4.40;;
2001;SDS011;1003;48.002;7.788;2023-02-22T06:03:50;8.20;;;4.40;;
2001;SDS011;1003;48.002;7.788;2023-02-22T06:06:18;7.20;;;4.00;;
2001;SDS011;1003;48.002;7.788;2023-02-22T06:08:47;7.07;;;3.80;;
2001;SDS011;1003;48.002;7.788;2023-02-22T06:11:15;6.47;;;4.03;;
2001;SDS011;1003;48.002;7.788;2023-02-22T06:13:47;7.60;;;4.03;;
2001;SDS011;1003;48.002;7.788;2023-02-22T06:16:15;7.83;;;4.07;;
2001;SDS011;1003;48.002;7.788;2023-02-22T06:18:42;6.50;;;3.90;;
2001;SDS011;1003;48.002;7.788;2023-02-22T06:21:09;8.20;;;4.20;;
2001;SDS011;1003;48.002;7.788;2023-02-22T06:23:36;7.57;;;4.60;;
2001;SDS011;1003;48.002;7.788;2023-02-22T06:26:05;8.80;;;4.90;;
2001;SDS011;1003;48.002;7.788;2023-02-22T06:28:32;9.03;;;4.73;;
2001;SDS011;1003;48.002;7.788;2023-02-22T06:30:59;8.87;;;5.17;;
2001;SDS011;1003;48.002;7.788;2023-02-22T06:33:26;7.37;;;4.43;;
2001;SDS011;1003;48.002;7.788;2023-02-22T06:35:53;6.53;;;4.70;;
2001;SDS011;1003;48.002;7.788;2023-02-22T06:38:20;9.80;;;5.20;;
2001;SDS011;1003;48.002;7.788;2023-02-22T06:40:48;7.77;;;5.03;;
2001;SDS011;1003;48.002;7.788;2023-02-22T06:43:17;7.67;;;4.73;;
2001;SDS011;1003;48.002;7.788;2023-02-22T06:45:44;24.00;;;10.47;;
2001;SDS011;1003;48.002;7.788;2023-02-22T06:48:11;24.47;;;10.53;;
2001;SDS011;1003;48.002;7.788;2023-02-22T06:50:39;18.30;;;8.20;;
2001;SDS011;1003;48.002;7.788;2023-02-22T06:53:06;15.10;;;6.13;;
2001;SDS011;1003;48.002;7.788;2023-02-22T06:55:33;8.33;;;4.50;;
2001;SDS011;1003;48.002;7.788;2023-02-22T06:58:02;7.50;;;4.20;;
2001;SDS011;1003;48.002;7.788;2023-02-22T07:00:31;8.33;;;4.30;;
2001;SDS011;1003;48.002;7.788;2023-02-22T07:02:59;7.33;;;4.03;;
2001;SDS011;1003;48.002;7.788;2023-02-22T07:05:29;6.57;;;3.67;;
2001;SDS011;1003;48.002;7.788;2023-02-22T07:08:00;6.47;;;3.57;;
2001;SDS011;1003;48.002;7.788;2023-02-22T07:10:31;6.63;;;3.83;;
2001;SDS011;1003;48.002;7.788;2023-02-22T07:13:00;6.60;;;3.50;;
2001;SDS011;1003;48.002;7.788;2023-02-22T07:15:29;6.23;;;3.93;;
2001;SDS011;1003;48.002;7.788;2023-02-22T07:17:59;6.73;;;3.20;;
2001;SDS011;1003;48.002;7.788;2023-02-22T07:20:28;7.17;;;3.77;;
2001;SDS011;1003;48.002;7.788;2023-02-22T07:22:57;6.77;;;3.60;;
2001;SDS011;1003;48.002;7.788;2023-02-22T07:25:24;5.67;;;3.23;;
2001;SDS011;1003;48.002;7.788;2023-02-22T07:27:51;5.90;;;2.80;;
2001;SDS011;1003;48.002;7.788;2023-02-22T07:30:19;5.43;;;2.67;;
2001;SDS011;1003;48.002;7.788;2023-02-22T07:32:51;4.63;;;2.60;;
2001;SDS011;1003;48.002;7.788;2023-02-22T07:35:20;4.37;;;2.40;;
2001;SDS011;1003;48.002;7.788;2023-02-22T07:37:50;2.93;;;2.17;;
2001;SDS011;1003;48.002;7.788;2023-02-22T07:40:17;3.30;;;2.43;;
2001;SDS011;1003;48.002;7.788;2023-02-22T07:42:52;5.17;;;2.77;;
2001;SDS011;1003;48.002;7.788;2023-02-22T07:45:23;3.90;;;2.63;;
2001;SDS011;1003;48.002;7.788;2023-02-22T07:47:54;3.30;;;2.47;;
2001;SDS011;1003;48.002;7.788;2023-02-22T07:50:22;4.50;;;2.50;;
2001;SDS011;1003;48.002;7.788;2023-02-22T07:52:52;3.77;;;2.23;;
2001;SDS011;1003;48.002;7.788;2023-02-22T07:55:22;5.93;;;2.60;;
2001;SDS011;1003;48.002;7.788;2023-02-22T07:57:52;6.17;;;2.90;;
2001;SDS011;1003;48.002;7.788;2023-02-22T08:00:23;3.83;;;2.57;;
2001;SDS011;1003;48.002;7.788;2023-02-22T08:02:53;4.03;;;2.50;;
2001;SDS011;1003;48.002;7.788;2023-02-22T08:05:22;4.13;;;2.50;;
2001;SDS011;1003;48.002;7.788;2023-02-22T08:07:56;4.90;;;2.50;;
2001;SDS011;1003;48.002;7.788;2023-02-22T08:10:23;5.43;;;3.03;;
2001;SDS011;1003;48.002;7.788;2023-02-22T08:12:52;4.10;;;2.40;;
2001;SDS011;1003;48.002;7.788;2023-02-22T08:15:21;5.37;;;2.63;;
2001;SDS011;1003;48.002;7.788;2023-02-22T08:17:50;5.80;;;2.70;;
2001;SDS011;1003;48.002;7.788;2023-02-22T08:20:19;3.97;;;2.53;;
2001;SDS011;1003;48.002;7.788;2023-02-22T08:22:47;3.73;;;2.47;;
2001;SDS011;1003;48.002;7.788;2023-02-22T08:25:15;2.93;;;2.10;;
2001;SDS011;1003;48.002;7.788;2023-02-22T08:27:46;3.53;;;2.43;;
2001;SDS011;1003;48.002;7.788;2023-02-22T08:30:14;2.97;;;2.20;;
2001;SDS011;1003;48.002;7.788;2023-02-22T08:32:45;4.07;;;2.70;;
2001;SDS011;1003;48.002;7.788;2023-02-22T08:35:13;2.93;;;2.00;;
2001;SDS011;1003;48.002;7.788;2023-02-22T08:37:43;4.53;;;2.63;;
2001;SDS011;1003;48.002;7.788;2023-02-22T08:40:11;4.60;;;3.03;;
2001;SDS011;1003;48.002;7.788;2023-02-22T08:42:41;5.20;;;3.27;;
2001;SDS011;1003;48.002;7.788;2023-02-22T08:45:08;5.43;;;3.13;;
2001;SDS011;1003;48.002;7.788;2023-02-22T08:47:37;5.17;;;2.93;;
2001;SDS011;1003;48.002;7.788;2023-02-22T08:50:04;4.23;;;3.30;;
2001;SDS011;1003;48.002;7.788;2023-02-22T08:52:33;3.67;;;2.73;;
2001;SDS011;1003;48.002;7.788;2023-02-22T08:55:01;4.13;;;2.87;;
2001;SDS011;1003;48.002;7.788;2023-02-22T08:57:28;5.13;;;3.33;;
2001;SDS011;1003;48.002;7.788;2023-02-22T08:59:55;4.83;;;3.10;;
2001;SDS011;1003;48.002;7.788;2023-02-22T09:02:22;6.47;;;2.90;;
2001;SDS011;1003;48.002;7.788;2023-02-22T09:04:50;4.37;;;2.80;;
2001;SDS011;1003;48.002;7.788;2023-02-22T09:07:17;4.40;;;2.90;;
2001;SDS011;1003;48.002;7.788;2023-02-22T09:09:44;4.57;;;2.97;;
2001;SDS011;1003;48.002;7.788;2023-02-22T09:12:12;4.13;;;2.93;;
2001;SDS011;1003;48.002;7.788;2023-02-22T09:14:39;4.47;;;2.63;;
2001;SDS011;1003;48.002;7.788;2023-02-22T09:17:07;4.60;;;3.10;;
2001;SDS011;1003;48.002;7.788;2023-02-22T09:19:34;4.47;;;3.10;;
2001;SDS011;1003;48.002;7.788;2023-02-22T09:22:01;5.40;;;3.43;;
2001;SDS011;1003;48.002;7.788;2023-02-22T09:24:28;9.53;;;4.03;;
2001;SDS011;1003;48.002;7.788;2023-02-22T09:26:55;10.37;;;5.00;;
2001;SDS011;1003;48.002;7.788;2023-02-22T09:29:25;9.80;;;5.53;;
2001;SDS011;1003;48.002;7.788;2023-02-22T09:31:53;9.47;;;6.10;;
2001;SDS011;1003;48.002;7.788;2023-02-22T09:34:22;11.37;;;6.73;;
2001;SDS011;1003;48.002;7.788;2023-02-22T09:36:53;11.70;;;7.23;;
2001;SDS011;1003;48.002;7.788;2023-02-22T09:39:22;12.43;;;7.57;;
2001;SDS011;1003;48.002;7.788;2023-02-22T09:41:51;11.80;;;7.80;;
2001;SDS011;1003;48.002;7.788;2023-02-22T09:44:31;12.00;;;7.97;;
2001;SDS011;1003;48.002;7.788;2023-02-22T09:47:07;17.17;;;8.93;;
2001;SDS011;1003;48.002;7.788;2023-02-22T09:49:43;15.67;;;9.37;;
2001;SDS011;1003;48.002;7.788;2023-02-22T09:52:24;16.17;;;9.20;;
2001;SDS011;1003;48.002;7.788;2023-02-22T09:54:59;14.97;;;9.30;;
2001;SDS011;1003;48.002;7.788;2023-02-22T09:57:35;16.43;;;9.03;;
2001;SDS011;1003;48.002;7.788;2023-02-22T10:00:13;15.30;;;9.67;;
2001;SDS011;1003;48.002;7.788;2023-02-22T10:02:46;16.27;;;9.73;;
2001;SDS011;1003;48.002;7.788;2023-02-22T10:05:20;18.13;;;10.10;;
2001;SDS011;1003;48.002;7.788;2023-02-22T10:07:57;15.10;;;9.07;;
2001;SDS011;1003;48.002;7.788;2023-02-22T10:10:30;14.83;;;9.33;;
2001;SDS011;1003;48.002;7.788;2023-02-22T10:13:04;15.50;;;8.57;;
2001;SDS011;1003;48.002;7.788;2023-02-22T10:15:47;14.40;;;8.50;;
2001;SDS011;1003;48.002;7.788;2023-02-22T10:18:31;14.13;;;8.97;;
2001;SDS011;1003;48.002;7.788;2023-02-22T10:21:31;15.70;;;9.17;;
2001;SDS011;1003;48.002;7.788;2023-02-22T10:24:14;15.60;;;9.33;;
2001;SDS011;1003;48.002;7.788;2023-02-22T10:27:02;16.23;;;8.90;;
2001;SDS011;1003;48.002;7.788;2023-02-22T10:29:34;15.63;;;9.33;;
2001;SDS011;1003;48.002;7.788;2023-02-22T10:32:10;15.33;;;9.13;;
2001;SDS011;1003;48.002;7.788;2023-02-22T10:34:45;16.70;;;10.10;;
2001;SDS011;1003;48.002;7.788;2023-02-22T10:37:18;20.80;;;10.33;;
2001;SDS011;1003;48.002;7.788;2023-02-22T10:39:54;19.87;;;9.73;;
2001;SDS011;1003;48.002;7.788;2023-02-22T10:42:29;13.73;;;8.73;;
2001;SDS011;1003;48.002;7.788;2023-02-22T10:44:57;15.63;;;9.60;;
2001;SDS011;1003;48.002;7.788;2023-02-22T10:47:25;17.27;;;9.57;;
2001;SDS011;1003;48.002;7.788;2023-02-22T10:49:54;15.73;;;10.10;;
2001;SDS011;1003;48.002;7.788;2023-02-22T10:52:25;18.53;;;10.20;;
2001;SDS011;1003;48.002;7.788;2023-02-22T10:54:56;17.23;;;10.00;;
2001;SDS011;1003;48.002;7.788;2023-02-22T10:57:26;17.20;;;9.60;;
2001;SDS011;1003;48.002;7.788;2023-02-22T10:59:57;15.63;;;10.27;;
2001;SDS011;1003;48.002;7.788;2023-02-22T11:02:52;15.80;;;9.87;;
2001;SDS011;1003;48.002;7.788;2023-02-22T11:05:26;14.70;;;9.60;;
2001;SDS011;1003;48.002;7.788;2023-02-22T11:08:14;15.40;;;9.40;;
2001;SDS011;1003;48.002;7.788;2023-02-22T11:10:51;16.57;;;9.70;;
2001;SDS011;1003;48.002;7.788;2023-02-22T11:13:25;14.13;;;8.57;;
2001;SDS011;1003;48.002;7.788;2023-02-22T11:15:57;15.67;;;9.73;;
2001;SDS011;1003;48.002;7.788;2023-02-22T11:18:30;17.07;;;9.70;;
2001;SDS011;1003;48.002;7.788;2023-02-22T11:21:01;15.90;;;9.67;;
2001;SDS011;1003;48.002;7.788;2023-02-22T11:23:32;16.87;;;9.27;;
2001;SDS011;1003;48.002;7.788;2023-02-22T11:26:03;14.83;;;9.67;;
2001;SDS011;1003;48.002;7.788;2023-02-22T11:28:34;16.87;;;10.60;;
2001;SDS011;1003;48.002;7.788;2023-02-22T11:31:13;15.23;;;9.00;;
2001;SDS011;1003;48.002;7.788;2023-02-22T11:33:50;15.33;;;9.90;;
2001;SDS011;1003;48.002;7.788;2023-02-22T11:36:31;16.23;;;9.87;;
2001;SDS011;1003;48.002;7.788;2023-02-22T11:39:03;14.73;;;9.43;;
2001;SDS011;1003;48.002;7.788;2023-02-22T11:41:35;16.37;;;10.23;;
2001;SDS011;1003;48.002;7.788;2023-02-22T11:44:19;15.10;;;9.07;;
2001;SDS011;1003;48.002;7.788;2023-02-22T11:46:50;13.07;;;8.70;;
2001;SDS011;1003;48.002;7.788;2023-02-22T11:49:22;14.73;;;9.37;;
2001;SDS011;1003;48.002;7.788;2023-02-22T11:52:03;14.80;;;8.67;;
2001;SDS011;1003;48.002;7.788;2023-02-22T11:57:48;16.87;;;9.23;;
2001;SDS011;1003;48.002;7.788;2023-02-22T12:00:34;16.00;;;9.80;;
2001;SDS011;1003;48.002;7.788;2023-02-22T12:06:27;16.10;;;9.90;;
2001;SDS011;1003;48.002;7.788;2023-02-22T12:09:11;14.40;;;9.23;;
2001;SDS011;1003;48.002;7.788;2023-02-22T12:11:51;14.87;;;8.60;;
2001;SDS011;1003;48.002;7.788;2023-02-22T12:14:29;13.10;;;8.33;;
2001;SDS011;1003;48.002;7.788;2023-02-22T12:17:17;15.57;;;8.77;;
2001;SDS011;1003;48.002;7.788;2023-02-22T12:20:00;12.67;;;8.87;;
2001;SDS011;1003;48.002;7.788;2023-02-22T12:22:38;16.63;;;9.93;;
2001;SDS011;1003;48.002;7.788;2023-02-22T12:25:22;16.07;;;9.27;;
2001;SDS011;1003;48.002;7.788;2023-02-22T12:27:54;16.30;;;9.97;;
2001;SDS011;1003;48.002;7.788;2023-02-22T12:30:29;20.23;;;9.87;;
2001;SDS011;1003;48.002;7.788;2023-02-22T12:33:03;13.40;;;9.20;;
2001;SDS011;1003;48.002;7.788;2023-02-22T12:35:39;13.67;;;9.33;;
2001;SDS011;1003;48.002;7.788;2023-02-22T12:38:17;15.10;;;9.23;;
2001;SDS011;1003;48.002;7.788;2023-02-22T12:40:55;14.77;;;10.17;;
2001;SDS011;1003;48.002;7.788;2023-02-22T12:43:30;17.23;;;9.77;;
2001;SDS011;1003;48.002;7.788;2023-02-22T12:46:06;14.53;;;9.37;;
2001;SDS011;1003;48.002;7.788;2023-02-22T12:48:42;14.50;;;9.83;;
2001;SDS011;1003;48.002;7.788;2023-02-22T12:51:24;14.47;;;8.77;;
2001;SDS011;1003;48.002;7.788;2023-02-22T12:54:04;16.40;;;10.40;;
2001;SDS011;1003;48.002;7.788;2023-02-22T12:56:42;17.30;;;9.77;;
2001;SDS011;1003;48.002;7.788;2023-02-22T12:59:19;13.20;;;8.97;;
2001;SDS011;1003;48.002;7.788;2023-02-22T13:01:57;15.57;;;9.10;;
2001;SDS011;1003;48.002;7.788;2023-02-22T13:04:37;15.27;;;9.40;;
2001;SDS011;1003;48.002;7.788;2023-02-22T13:07:09;18.10;;;10.37;;
2001;SDS011;1003;48.002;7.788;2023-02-22T13:13:05;14.00;;;8.70;;
2001;SDS011;1003;48.002;7.788;2023-02-22T13:15:43;14.07;;;8.90;;
2001;SDS011;1003;48.002;7.788;2023-02-22T13:18:19;14.60;;;9.17;;
2001;SDS011;1003;48.002;7.788;2023-02-22T13:20:57;14.77;;;9.77;;
2001;SDS011;1003;48.002;7.788;2023-02-22T13:23:36;13.67;;;8.70;;
2001;SDS011;1003;48.002;7.788;2023-02-22T13:26:13;12.60;;;8.77;;
2001;SDS011;1003;48.002;7.788;2023-02-22T13:28:49;14.50;;;9.63;;
2001;SDS011;1003;48.002;7.788;2023-02-22T13:31:47;17.70;;;10.20;;
2001;SDS011;1003;48.002;7.788;2023-02-22T13:34:35;13.47;;;8.70;;
2001;SDS011;1003;48.002;7.788;2023-02-22T13:37:38;16.00;;;9.00;;
2001;SDS011;1003;48.002;7.788;2023-02-22T13:40:47;14.87;;;9.07;;
2001;SDS011;1003;48.002;7.788;2023-02-22T13:43:47;15.60;;;9.33;;
2001;SDS011;1003;48.002;7.788;2023-02-22T13:46:58;14.90;;;9.07;;
2001;SDS011;1003;48.002;7.788;2023-02-22T13:50:06;16.43;;;10.03;;
2001;SDS011;1003;48.002;7.788;2023-02-22T13:52:58;15.37;;;9.97;;
2001;SDS011;1003;48.002;7.788;2023-02-22T13:55:31;17.07;;;10.27;;
2001;SDS011;1003;48.002;7.788;2023-02-22T13:58:03;14.37;;;9.50;;
2001;SDS011;1003;48.002;7.788;2023-02-22T14:00:44;15.07;;;9.83;;
2001;SDS011;1003;48.002;7.788;2023-02-22T14:06:06;13.63;;;8.90;;
2001;SDS011;1003;48.002;7.788;2023-02-22T14:08:57;16.00;;;9.93;;
2001;SDS011;1003;48.002;7.788;2023-02-22T14:14:21;18.07;;;10.20;;
2001;SDS011;1003;48.002;7.788;2023-02-22T14:17:14;16.53;;;10.27;;
2001;SDS011;1003;48.002;7.788;2023-02-22T14:20:04;17.63;;;10.33;;
2001;SDS011;1003;48.002;7.788;2023-02-22T14:22:54;17.00;;;10.10;;
2001;SDS011;1003;48.002;7.788;2023-02-22T14:25:37;15.50;;;9.30;;
2001;SDS011;1003;48.002;7.788;2023-02-22T14:28:08;15.03;;;9.00;;
2001;SDS011;1003;48.002;7.788;2023-02-22T14:31:05;16.77;;;10.33;;
2001;SDS011;1003;48.002;7.788;2023-02-22T14:36:35;17.03;;;10.43;;
2001;SDS011;1003;48.002;7.788;2023-02-22T14:39:17;14.30;;;9.70;;
2001;SDS011;1003;48.002;7.788;2023-02-22T14:41:54;14.80;;;9.63;;
2001;SDS011;1003;48.002;7.788;2023-02-22T14:44:27;15.00;;;9.60;;
2001;SDS011;1003;48.002;7.788;2023-02-22T14:47:02;14.97;;;9.20;;
2001;SDS011;1003;48.002;7.788;2023-02-22T14:49:34;14.77;;;9.13;;
2001;SDS011;1003;48.002;7.788;2023-02-22T14:52:14;15.40;;;10.20;;
2001;SDS011;1003;48.002;7.788;2023-02-22T14:54:50;15.50;;;9.70;;
2001;SDS011;1003;48.002;7.788;2023-02-22T14:57:39;15.77;;;9.67;;
2001;SDS011;1003;48.002;7.788;2023-02-22T15:00:19;15.17;;;9.10;;
2001;SDS011;1003;48.002;7.788;2023-02-22T15:02:55;20.23;;;9.33;;
2001;SDS011;1003;48.002;7.788;2023-02-22T15:05:25;17.50;;;9.70;;
2001;SDS011;1003;48.002;7.788;2023-02-22T15:07:56;18.97;;;10.73;;
2001;SDS011;1003;48.002;7.788;2023-02-22T15:10:27;17.37;;;10.50;;
2001;SDS011;1003;48.002;7.788;2023-02-22T15:12:59;14.10;;;9.37;;
2001;SDS011;1003;48.002;7.788;2023-02-22T15:15:35;17.73;;;10.93;;
2001;SDS011;1003;48.002;7.788;2023-02-22T15:18:11;18.00;;;11.20;;
2001;SDS011;1003;48.002;7.788;2023-02-22T15:20:48;21.50;;;11.43;;
2001;SDS011;1003;48.002;7.788;2023-02-22T15:23:20;18.60;;;11.10;;
2001;SDS011;1003;48.002;7.788;2023-02-22T15:25:54;18.70;;;10.93;;
2001;SDS011;1003;48.002;7.788;2023-02-22T15:28:24;16.23;;;10.47;;
2001;SDS011;1003;48.002;7.788;2023-02-22T15:31:15;19.83;;;10.13;;
2001;SDS011;1003;48.002;7.788;2023-02-22T15:33:47;19.07;;;10.73;;
2001;SDS011;1003;48.002;7.788;2023-02-22T15:36:17;19.60;;;11.00;;
2001;SDS011;1003;48.002;7.788;2023-02-22T15:38:47;17.70;;;10.97;;
2001;SDS011;1003;48.002;7.788;2023-02-22T15:41:19;16.57;;;10.40;;
2001;SDS011;1003;48.002;7.788;2023-02-22T15:43:57;19.30;;;10.77;;
2001;SDS011;1003;48.002;7.788;2023-02-22T15:46:28;19.03;;;10.80;;
2001;SDS011;1003;48.002;7.788;2023-02-22T15:49:06;17.23;;;10.43;;
2001;SDS011;1003;48.002;7.788;2023-02-22T15:51:44;19.73;;;10.27;;
2001;SDS011;1003;48.002;7.788;2023-02-22T15:54:25;16.40;;;10.00;;
2001;SDS011;1003;48.002;7.788;2023-02-22T15:56:53;15.77;;;9.70;;
2001;SDS011;1003;48.002;7.788;2023-02-22T15:59:22;16.33;;;9.53;;
2001;SDS011;1003;48.002;7.788;2023-02-22T16:01:54;17.17;;;9.30;;
2001;SDS011;1003;48.002;7.788;2023-02-22T16:04:25;16.80;;;9.80;;
2001;SDS011;1003;48.002;7.788;2023-02-22T16:07:01;15.70;;;9.73;;
2001;SDS011;1003;48.002;7.788;2023-02-22T16:09:44;15.07;;;9.60;;
2001;SDS011;1003;48.002;7.788;2023-02-22T16:12:22;18.83;;;10.53;;